Time,TemperatureF,DewpointF,PressureIn,WindDirection,WindDirectionDegrees,WindSpeedMPH,WindSpeedGustMPH,Humidity,HourlyPrecipIn,Conditions,Clouds,dailyrainin,SoftwareType,DateUTC
2013-01-24 07:53:00,28.0,17.0,30.42,NNE,17,11.0,-999.0,62,-99.99,,,-99.99,,2013-01-24 13:53:00,
2013-01-24 08:03:00,28.0,17.0,30.43,NE,34,11.0,-999.0,62,-99.99,,,-99.99,,2013-01-24 14:03:00,
2013-01-24 08:12:00,28.0,17.0,30.43,NE,34,11.0,-999.0,62,-99.99,,,-99.99,,2013-01-24 14:12:00,
2013-01-24 08:23:00,28.0,17.0,30.44,NNE,21,9.0,-999.0,63,-99.99,,,-99.99,,2013-01-24 14:23:00,
2013-01-24 08:33:00,28.0,17.0,30.45,NNE,25,9.0,-999.0,63,-99.99,,,-99.99,,2013-01-24 14:33:00,
2013-01-24 08:43:00,28.0,17.0,30.45,NNE,25,9.0,-999.0,63,-99.99,,,-99.99,,2013-01-24 14:43:00,
2013-01-24 08:54:00,28.0,17.0,30.45,NNE,25,9.0,-999.0,63,-99.99,,,-99.99,,2013-01-24 14:54:00,
2013-01-24 09:03:00,28.0,17.0,30.45,NNE,25,9.0,-999.0,63,-99.99,,,-99.99,,2013-01-24 15:03:00,
2013-01-24 09:12:00,28.0,17.0,30.45,NNE,25,9.0,-999.0,63,-99.99,,,-99.99,,2013-01-24 15:12:00,
2013-01-24 10:23:00,29.0,15.0,30.49,NNE,21,11.0,-999.0,56,-99.99,,,-99.99,,2013-01-24 16:23:00,
2013-01-24 10:33:00,29.0,15.0,30.50,NE,55,10.0,-999.0,55,-99.99,,,-99.99,,2013-01-24 16:33:00,
2013-01-24 10:43:00,29.0,15.0,30.50,NE,55,10.0,-999.0,55,-99.99,,,-99.99,,2013-01-24 16:43:00,
2013-01-24 11:02:00,29.0,14.0,30.50,NE,40,9.0,-999.0,54,-99.99,,,-99.99,,2013-01-24 17:02:00,
2013-01-24 11:12:00,29.0,14.0,30.50,NE,40,9.0,-999.0,54,-99.99,,,-99.99,,2013-01-24 17:12:00,
2013-01-24 11:22:00,29.0,12.0,30.50,NE,48,12.0,-999.0,48,-99.99,,,-99.99,,2013-01-24 17:22:00,
2013-01-24 11:32:00,29.0,12.0,30.50,NE,48,12.0,-999.0,48,-99.99,,,-99.99,,2013-01-24 17:32:00,
2013-01-24 11:42:00,29.0,12.0,30.50,NE,48,12.0,-999.0,48,-99.99,,,-99.99,,2013-01-24 17:42:00,
2013-01-24 11:52:00,29.0,12.0,30.50,NE,48,12.0,-999.0,48,-99.99,,,-99.99,,2013-01-24 17:52:00,
2013-01-24 12:02:00,30.0,11.0,30.48,NE,38,11.0,-999.0,44,-99.99,,,-99.99,,2013-01-24 18:02:00,
2013-01-24 12:12:00,30.0,10.0,30.46,East,84,11.0,-999.0,43,-99.99,,,-99.99,,2013-01-24 18:12:00,
2013-01-24 12:22:00,30.0,10.0,30.46,East,84,11.0,-999.0,43,-99.99,,,-99.99,,2013-01-24 18:22:00,
2013-01-24 12:33:00,31.0,12.0,30.45,NE,41,9.0,-999.0,44,-99.99,,,-99.99,,2013-01-24 18:33:00,
2013-01-24 12:42:00,31.0,12.0,30.45,NE,41,9.0,-999.0,44,-99.99,,,-99.99,,2013-01-24 18:42:00,
2013-01-24 12:53:00,31.0,12.0,30.45,NE,41,9.0,-999.0,44,-99.99,,,-99.99,,2013-01-24 18:53:00,
2013-01-24 13:02:00,32.0,12.0,30.44,ENE,59,11.0,-999.0,42,-99.99,,,-99.99,,2013-01-24 19:02:00,
2013-01-24 13:12:00,32.0,12.0,30.44,ENE,59,11.0,-999.0,42,-99.99,,,-99.99,,2013-01-24 19:12:00,
2013-01-24 13:22:00,32.0,9.0,30.42,NE,55,9.0,-999.0,38,-99.99,,,-99.99,,2013-01-24 19:22:00,
2013-01-24 13:33:00,33.0,10.0,30.42,ENE,64,10.0,-999.0,38,-99.99,,,-99.99,,2013-01-24 19:33:00,
2013-01-24 13:42:00,33.0,10.0,30.42,ENE,64,10.0,-999.0,38,-99.99,,,-99.99,,2013-01-24 19:42:00,
2013-01-24 13:52:00,33.0,10.0,30.42,ENE,64,10.0,-999.0,38,-99.99,,,-99.99,,2013-01-24 19:52:00,
2013-01-24 14:02:00,33.0,10.0,30.42,ENE,64,10.0,-999.0,38,-99.99,,,-99.99,,2013-01-24 20:02:00,
2013-01-24 14:11:00,33.0,10.0,30.42,ENE,64,10.0,-999.0,38,-99.99,,,-99.99,,2013-01-24 20:11:00,
2013-01-24 15:02:00,34.0,13.0,30.38,NE,56,9.0,-999.0,42,-99.99,,,-99.99,,2013-01-24 21:02:00,
2013-01-24 15:12:00,34.0,13.0,30.38,NE,56,9.0,-999.0,42,-99.99,,,-99.99,,2013-01-24 21:12:00,
2013-01-24 15:22:00,34.0,13.0,30.38,East,86,8.0,-999.0,42,-99.99,,,-99.99,,2013-01-24 21:22:00,
2013-01-24 15:33:00,34.0,13.0,30.38,ENE,76,9.0,-999.0,42,-99.99,,,-99.99,,2013-01-24 21:33:00,
2013-01-24 15:42:00,34.0,13.0,30.38,ENE,76,9.0,-999.0,42,-99.99,,,-99.99,,2013-01-24 21:42:00,
2013-01-24 15:53:00,34.0,14.0,30.36,ENE,65,9.0,-999.0,43,-99.99,,,-99.99,,2013-01-24 21:53:00,
2013-01-24 16:02:00,34.0,13.0,30.35,NE,49,9.0,-999.0,42,-99.99,,,-99.99,,2013-01-24 22:02:00,
2013-01-24 16:12:00,34.0,13.0,30.35,NE,49,9.0,-999.0,42,-99.99,,,-99.99,,2013-01-24 22:12:00,
2013-01-24 16:22:00,34.0,13.0,30.35,NE,49,9.0,-999.0,42,-99.99,,,-99.99,,2013-01-24 22:22:00,
2013-01-24 16:32:00,34.0,13.0,30.35,NE,49,9.0,-999.0,42,-99.99,,,-99.99,,2013-01-24 22:32:00,
2013-01-24 16:42:00,34.0,13.0,30.35,NE,49,9.0,-999.0,42,-99.99,,,-99.99,,2013-01-24 22:42:00,